createdAt,value
2024-05-09T00:01:09.801Z,52.08
2024-05-09T00:06:11.463Z,52.45
2024-05-09T00:11:20.568Z,51.94
2024-05-09T00:16:22.430Z,50.98
2024-05-09T00:21:24.063Z,51.34
2024-05-09T00:26:25.775Z,51.01
2024-05-09T00:31:27.452Z,50.50
2024-05-09T00:36:29.081Z,50.78
2024-05-09T00:41:30.779Z,51.05
2024-05-09T00:46:32.451Z,50.48
2024-05-09T00:51:34.091Z,50.37
2024-05-09T00:56:35.819Z,49.74
2024-05-09T01:01:37.581Z,50.79
2024-05-09T01:06:39.263Z,49.60
2024-05-09T01:11:41.188Z,50.68
2024-05-09T01:16:42.904Z,50.31
2024-05-09T01:21:44.635Z,50.50
2024-05-09T01:26:46.289Z,49.91
2024-05-09T01:31:48.345Z,49.82
2024-05-09T01:36:50.025Z,49.97
2024-05-09T01:41:51.743Z,50.11
2024-05-09T01:46:53.436Z,49.51
2024-05-09T01:51:55.097Z,49.58
2024-05-09T01:56:56.724Z,49.39
2024-05-09T02:01:58.476Z,49.63
2024-05-09T02:07:00.224Z,49.66
2024-05-09T02:12:02.063Z,49.51
2024-05-09T02:17:04.210Z,49.65
2024-05-09T02:22:05.867Z,48.59
2024-05-09T02:27:08.247Z,49.64
2024-05-09T02:32:09.961Z,49.30
2024-05-09T02:37:11.621Z,49.65
2024-05-09T02:42:13.245Z,49.78
2024-05-09T02:47:14.994Z,49.77
2024-05-09T02:52:19.883Z,48.80
2024-05-09T02:57:21.516Z,49.59
2024-05-09T03:02:23.216Z,49.48
2024-05-09T03:07:25.051Z,49.62
2024-05-09T03:12:28.209Z,49.59
2024-05-09T03:17:29.933Z,49.17
2024-05-09T03:22:31.630Z,49.48
2024-05-09T03:27:33.259Z,49.45
2024-05-09T03:32:35.085Z,49.16
2024-05-09T03:37:36.850Z,49.77
2024-05-09T03:42:41.615Z,49.43
2024-05-09T03:47:43.392Z,49.36
2024-05-09T03:52:45.225Z,49.64
2024-05-09T03:57:46.868Z,49.44
2024-05-09T04:02:48.565Z,49.71
2024-05-09T04:07:50.303Z,50.05
2024-05-09T04:12:53.212Z,49.95
2024-05-09T04:17:55.176Z,49.77
2024-05-09T04:22:57.081Z,49.81
2024-05-09T04:27:58.745Z,50.02
2024-05-09T04:33:00.500Z,49.97
2024-05-09T04:38:02.673Z,50.06
2024-05-09T04:43:07.618Z,49.48
2024-05-09T04:48:09.651Z,49.70
2024-05-09T04:53:15.261Z,50.00
2024-05-09T04:58:17.036Z,49.84
2024-05-09T05:03:18.906Z,50.02
2024-05-09T05:08:21.054Z,49.89
2024-05-09T05:13:23.925Z,49.71
2024-05-09T05:18:27.523Z,49.94
2024-05-09T05:23:29.654Z,49.68
2024-05-09T05:28:31.316Z,49.50
2024-05-09T05:33:33.185Z,49.87
2024-05-09T05:38:34.973Z,49.19
2024-05-09T05:43:36.643Z,49.71
2024-05-09T05:48:38.378Z,50.83
2024-05-09T05:53:40.192Z,50.17
2024-05-09T05:58:43.191Z,49.77
2024-05-09T06:03:44.974Z,49.97
2024-05-09T06:08:46.812Z,49.33
2024-05-09T06:13:48.763Z,49.04
2024-05-09T06:18:50.613Z,50.22
2024-05-09T06:23:53.444Z,48.64
2024-05-09T06:28:55.161Z,48.69
2024-05-09T06:33:56.964Z,48.35
2024-05-09T06:38:58.680Z,46.89
2024-05-09T06:44:00.389Z,47.81
2024-05-09T06:49:08.356Z,47.48
2024-05-09T06:54:10.188Z,47.49
2024-05-09T06:59:11.883Z,46.22
2024-05-09T07:04:13.685Z,46.84
2024-05-09T07:09:15.440Z,47.34
2024-05-09T07:14:17.124Z,46.11
2024-05-09T07:19:19.214Z,47.70
2024-05-09T07:24:20.952Z,46.17
2024-05-09T07:29:22.675Z,45.75
2024-05-09T07:34:25.324Z,47.58
2024-05-09T07:39:27.163Z,47.12
2024-05-09T07:44:30.516Z,47.34
2024-05-09T07:54:37.000Z,47.65
2024-05-09T07:59:38.965Z,46.63
2024-05-09T08:04:40.769Z,46.34
2024-05-09T08:09:42.501Z,47.06
2024-05-09T08:14:44.152Z,47.45
2024-05-09T08:19:45.874Z,46.14
2024-05-09T08:24:47.638Z,46.53
2024-05-09T08:29:49.316Z,46.32
2024-05-09T08:34:51.072Z,45.62
2024-05-09T08:39:52.871Z,46.26
2024-05-09T08:44:54.538Z,45.43
2024-05-09T08:49:58.436Z,45.36
2024-05-09T08:55:00.857Z,44.82
2024-05-09T09:00:04.868Z,44.45
2024-05-09T09:05:11.161Z,44.60
2024-05-09T09:10:17.853Z,44.88
2024-05-09T09:15:26.755Z,44.51
2024-05-09T09:20:35.884Z,43.96
2024-05-09T09:25:41.846Z,43.22
2024-05-09T09:30:43.640Z,44.86
2024-05-09T09:35:45.393Z,44.56
2024-05-09T09:40:50.250Z,43.84
2024-05-09T09:45:53.472Z,43.27
2024-05-09T09:50:55.634Z,42.65
2024-05-09T09:55:57.729Z,42.83
2024-05-09T10:00:59.486Z,43.43
2024-05-09T10:06:01.271Z,44.84
2024-05-09T10:11:03.652Z,43.10
2024-05-09T10:16:11.406Z,43.50
2024-05-09T10:21:17.323Z,42.63
2024-05-09T10:26:18.969Z,40.61
2024-05-09T10:31:20.628Z,42.50
2024-05-09T10:36:25.440Z,42.64
2024-05-09T10:41:27.079Z,41.56
2024-05-09T10:46:28.738Z,42.47
2024-05-09T10:51:30.444Z,41.47
2024-05-09T10:56:32.145Z,41.46
2024-05-09T11:01:33.869Z,42.11
2024-05-09T11:06:38.105Z,46.14
2024-05-09T11:11:39.860Z,43.14
2024-05-09T11:16:41.532Z,40.69
2024-05-09T11:21:43.312Z,39.85
2024-05-09T11:26:44.978Z,39.91
2024-05-09T11:31:49.558Z,38.94
2024-05-09T11:36:51.266Z,39.54
2024-05-09T11:41:52.986Z,40.65
2024-05-09T11:46:54.961Z,39.90
2024-05-09T11:51:56.558Z,39.67
2024-05-09T11:56:58.115Z,40.23
2024-05-09T12:01:59.740Z,39.45
2024-05-09T12:07:01.474Z,37.85
2024-05-09T12:12:03.702Z,38.16
2024-05-09T12:17:05.722Z,37.49
2024-05-09T12:22:07.621Z,39.07
2024-05-09T12:27:09.320Z,40.34
2024-05-09T12:32:11.016Z,40.00
2024-05-09T12:37:13.732Z,40.50
2024-05-09T12:42:26.368Z,43.40
2024-05-09T12:47:29.647Z,44.47
2024-05-09T12:52:31.346Z,48.08
2024-05-09T12:57:33.021Z,45.81
2024-05-09T13:02:34.836Z,43.25
2024-05-09T13:07:36.632Z,41.27
2024-05-09T13:12:38.502Z,46.09
2024-05-09T13:17:40.192Z,45.32
2024-05-09T13:22:42.554Z,42.24
2024-05-09T13:27:44.254Z,43.44
2024-05-09T13:32:46.036Z,41.70
2024-05-09T13:37:47.805Z,42.34
2024-05-09T13:42:49.462Z,42.32
2024-05-09T13:47:51.270Z,42.11
2024-05-09T13:52:53.020Z,41.13
2024-05-09T13:57:55.386Z,43.12
2024-05-09T14:02:57.412Z,41.99
2024-05-09T14:07:59.104Z,42.15
2024-05-09T14:13:01.285Z,42.05
2024-05-09T14:18:03.946Z,42.47
2024-05-09T14:23:05.579Z,42.00
2024-05-09T14:28:07.406Z,43.54
2024-05-09T14:33:09.727Z,42.54
2024-05-09T14:38:11.741Z,41.35
2024-05-09T14:43:14.495Z,41.13
2024-05-09T14:48:16.840Z,41.57
2024-05-09T14:53:18.626Z,41.96
2024-05-09T14:58:20.484Z,42.21
2024-05-09T15:03:22.806Z,43.29
2024-05-09T15:08:24.674Z,43.88
2024-05-09T15:13:26.546Z,44.26
2024-05-09T15:18:29.503Z,44.32
2024-05-09T15:23:31.340Z,43.41
2024-05-09T15:28:33.136Z,43.85
2024-05-09T15:33:34.925Z,44.10
2024-05-09T15:38:39.155Z,44.76
2024-05-09T15:43:40.886Z,45.34
2024-05-09T15:48:44.768Z,46.34
2024-05-09T15:53:46.693Z,46.01
2024-05-09T15:58:48.341Z,46.36
2024-05-09T16:03:50.310Z,46.26
2024-05-09T16:08:52.056Z,46.34
2024-05-09T16:13:53.696Z,46.63
2024-05-09T16:18:55.406Z,46.23
2024-05-09T16:23:58.376Z,46.72
2024-05-09T16:28:59.998Z,46.75
2024-05-09T16:34:01.726Z,46.87
2024-05-09T16:39:03.662Z,47.72
2024-05-09T16:44:05.382Z,47.63
2024-05-09T16:49:07.032Z,47.43
2024-05-09T16:54:08.656Z,47.69
2024-05-09T16:59:10.306Z,47.82
2024-05-09T17:04:12.213Z,47.70
2024-05-09T17:09:15.701Z,47.94
2024-05-09T17:14:19.861Z,47.80
2024-05-09T17:19:21.638Z,47.60
2024-05-09T17:24:23.319Z,47.42
2024-05-09T17:29:25.046Z,47.36
2024-05-09T17:34:27.080Z,47.64
2024-05-09T17:39:28.874Z,47.72
2024-05-09T17:44:30.502Z,48.69
2024-05-09T17:49:32.275Z,48.16
2024-05-09T17:54:34.047Z,48.13
2024-05-09T17:59:35.718Z,48.56
2024-05-09T18:04:37.481Z,48.39
2024-05-09T18:09:39.190Z,47.84
2024-05-09T18:14:41.006Z,49.24
2024-05-09T18:19:42.672Z,48.73
2024-05-09T18:24:44.347Z,48.08
2024-05-09T18:29:46.010Z,47.41
2024-05-09T18:34:47.717Z,47.47
2024-05-09T18:39:49.417Z,47.42
2024-05-09T18:44:51.086Z,47.16
2024-05-09T18:49:53.074Z,47.30
2024-05-09T18:54:55.064Z,47.58
2024-05-09T18:59:56.732Z,47.68
2024-05-09T19:04:58.716Z,47.36
2024-05-09T19:10:00.797Z,47.78
2024-05-09T19:15:02.564Z,48.12
2024-05-09T19:20:05.780Z,48.36
2024-05-09T19:25:07.769Z,47.99
2024-05-09T19:30:17.201Z,48.38
2024-05-09T19:35:23.386Z,48.70
2024-05-09T19:40:30.931Z,48.51
2024-05-09T19:45:35.744Z,48.76
2024-05-09T19:50:43.083Z,49.24
2024-05-09T19:55:46.256Z,48.98
2024-05-09T20:00:48.058Z,49.15
2024-05-09T20:05:49.879Z,49.41
2024-05-09T20:10:51.561Z,50.51
2024-05-09T20:15:53.202Z,49.80
2024-05-09T20:20:55.131Z,50.09
2024-05-09T20:25:56.836Z,50.93
2024-05-09T20:30:58.557Z,51.81
2024-05-09T20:36:02.156Z,52.50
2024-05-09T20:41:04.364Z,52.19
2024-05-09T20:46:06.211Z,52.67
2024-05-09T20:51:07.952Z,52.53
2024-05-09T20:56:09.590Z,52.61
2024-05-09T21:01:11.311Z,52.93
2024-05-09T21:06:13.080Z,53.00
2024-05-09T21:11:14.700Z,53.19
2024-05-09T21:16:16.432Z,53.57
2024-05-09T21:21:18.156Z,53.50
2024-05-09T21:26:22.985Z,53.26
2024-05-09T21:31:24.704Z,54.28
2024-05-09T21:36:26.389Z,54.39
2024-05-09T21:41:28.018Z,54.73
2024-05-09T21:46:29.810Z,54.86
2024-05-09T21:51:31.938Z,55.28
2024-05-09T21:56:33.657Z,56.50
2024-05-09T22:01:35.948Z,56.11
2024-05-09T22:06:37.785Z,56.36
2024-05-09T22:11:39.465Z,55.96
2024-05-09T22:16:41.305Z,56.27
2024-05-09T22:21:43.021Z,56.77
2024-05-09T22:26:44.696Z,56.90
2024-05-09T22:31:46.332Z,56.97
2024-05-09T22:36:47.975Z,56.49
2024-05-09T22:41:49.948Z,57.92
2024-05-09T22:46:51.693Z,56.52
2024-05-09T22:51:53.386Z,56.14
2024-05-09T22:56:55.039Z,56.60
2024-05-09T23:01:56.972Z,56.58
2024-05-09T23:06:58.677Z,55.80
2024-05-09T23:12:00.409Z,55.70
2024-05-09T23:17:02.118Z,55.08
2024-05-09T23:22:03.959Z,55.54
2024-05-09T23:27:05.595Z,54.97
2024-05-09T23:32:09.384Z,54.64
2024-05-09T23:37:11.059Z,54.63
2024-05-09T23:42:12.734Z,56.26
2024-05-09T23:47:14.469Z,55.68
2024-05-09T23:52:16.182Z,56.43
2024-05-09T23:57:17.834Z,56.37
